sensor_id;sensor_type;location;lat;lon;timestamp;pressure;altitude;pressure_sealevel;temperature;humidity
84108;BME280;74203;50.730;1.626;2023-11-19T00:00:19;100011.25;;;13.34;84.85
84108;BME280;74203;50.730;1.626;2023-11-19T00:02:26;100003.59;;;13.31;84.99
84108;BME280;74203;50.730;1.626;2023-11-19T00:04:34;100003.00;;;13.29;85.54
84108;BME280;74203;50.730;1.626;2023-11-19T00:06:43;100002.19;;;13.28;85.98
84108;BME280;74203;50.730;1.626;2023-11-19T00:08:50;100003.72;;;13.36;85.87
84108;BME280;74203;50.730;1.626;2023-11-19T00:10:58;100006.28;;;13.54;85.06
84108;BME280;74203;50.730;1.626;2023-11-19T00:13:05;100006.78;;;13.51;85.03
84108;BME280;74203;50.730;1.626;2023-11-19T00:15:13;100014.22;;;13.44;84.78
84108;BME280;74203;50.730;1.626;2023-11-19T00:17:21;100024.69;;;13.29;84.76
84108;BME280;74203;50.730;1.626;2023-11-19T00:19:28;100022.19;;;13.27;84.37
84108;BME280;74203;50.730;1.626;2023-11-19T00:21:36;100026.03;;;13.20;84.50
84108;BME280;74203;50.730;1.626;2023-11-19T00:23:43;100025.62;;;13.23;84.73
84108;BME280;74203;50.730;1.626;2023-11-19T00:25:50;100030.94;;;13.29;84.18
84108;BME280;74203;50.730;1.626;2023-11-19T00:27:58;100025.88;;;13.45;84.16
84108;BME280;74203;50.730;1.626;2023-11-19T00:30:06;100023.06;;;13.51;84.09
84108;BME280;74203;50.730;1.626;2023-11-19T00:32:14;100029.41;;;13.45;84.19
84108;BME280;74203;50.730;1.626;2023-11-19T00:34:21;100024.00;;;13.45;83.92
84108;BME280;74203;50.730;1.626;2023-11-19T00:36:28;100017.13;;;13.54;83.14
84108;BME280;74203;50.730;1.626;2023-11-19T00:38:36;100016.09;;;13.67;83.08
84108;BME280;74203;50.730;1.626;2023-11-19T00:40:43;100022.00;;;13.76;82.83
84108;BME280;74203;50.730;1.626;2023-11-19T00:42:51;100008.88;;;13.73;83.79
84108;BME280;74203;50.730;1.626;2023-11-19T00:44:58;100016.31;;;13.89;83.08
84108;BME280;74203;50.730;1.626;2023-11-19T00:47:06;100010.44;;;13.69;83.49
84108;BME280;74203;50.730;1.626;2023-11-19T00:49:13;100012.56;;;13.55;83.03
84108;BME280;74203;50.730;1.626;2023-11-19T00:51:20;100016.56;;;13.52;82.99
84108;BME280;74203;50.730;1.626;2023-11-19T00:53:28;100006.66;;;13.34;83.54
84108;BME280;74203;50.730;1.626;2023-11-19T00:55:35;100005.25;;;13.32;83.30
84108;BME280;74203;50.730;1.626;2023-11-19T00:57:42;100012.09;;;13.34;83.23
84108;BME280;74203;50.730;1.626;2023-11-19T00:59:50;100013.28;;;13.50;82.70
84108;BME280;74203;50.730;1.626;2023-11-19T01:01:57;99999.22;;;13.30;83.06
84108;BME280;74203;50.730;1.626;2023-11-19T01:04:05;99994.03;;;13.40;83.06
84108;BME280;74203;50.730;1.626;2023-11-19T01:06:13;99998.06;;;13.49;82.50
84108;BME280;74203;50.730;1.626;2023-11-19T01:08:20;99981.78;;;13.49;83.32
84108;BME280;74203;50.730;1.626;2023-11-19T01:10:27;99983.56;;;13.44;83.52
84108;BME280;74203;50.730;1.626;2023-11-19T01:12:35;99999.59;;;13.57;83.86
84108;BME280;74203;50.730;1.626;2023-11-19T01:14:42;100001.94;;;13.53;83.10
84108;BME280;74203;50.730;1.626;2023-11-19T01:16:49;99999.81;;;13.32;83.35
84108;BME280;74203;50.730;1.626;2023-11-19T01:18:57;100002.06;;;13.35;83.25
84108;BME280;74203;50.730;1.626;2023-11-19T01:21:04;99998.16;;;13.31;83.12
84108;BME280;74203;50.730;1.626;2023-11-19T01:23:12;100003.47;;;13.26;83.23
84108;BME280;74203;50.730;1.626;2023-11-19T01:25:20;99983.59;;;13.13;82.85
84108;BME280;74203;50.730;1.626;2023-11-19T01:27:27;99992.34;;;13.16;82.70
84108;BME280;74203;50.730;1.626;2023-11-19T01:29:34;99973.25;;;13.10;82.22
84108;BME280;74203;50.730;1.626;2023-11-19T01:31:42;99982.91;;;13.06;82.67
84108;BME280;74203;50.730;1.626;2023-11-19T01:33:49;100009.41;;;13.04;82.70
84108;BME280;74203;50.730;1.626;2023-11-19T01:35:56;99978.06;;;12.97;81.93
84108;BME280;74203;50.730;1.626;2023-11-19T01:38:04;99986.78;;;12.87;82.04
84108;BME280;74203;50.730;1.626;2023-11-19T01:40:13;99994.75;;;12.82;81.00
84108;BME280;74203;50.730;1.626;2023-11-19T01:42:20;100000.88;;;12.77;80.84
84108;BME280;74203;50.730;1.626;2023-11-19T01:44:28;99989.06;;;12.72;81.00
84108;BME280;74203;50.730;1.626;2023-11-19T01:46:37;100001.09;;;12.76;80.97
84108;BME280;74203;50.730;1.626;2023-11-19T01:48:47;99998.19;;;12.89;81.34
84108;BME280;74203;50.730;1.626;2023-11-19T01:50:55;100010.09;;;13.00;81.39
84108;BME280;74203;50.730;1.626;2023-11-19T01:53:04;99995.41;;;13.07;81.81
84108;BME280;74203;50.730;1.626;2023-11-19T01:55:13;100006.50;;;13.18;81.82
84108;BME280;74203;50.730;1.626;2023-11-19T01:57:22;100003.66;;;13.12;81.47
84108;BME280;74203;50.730;1.626;2023-11-19T01:59:30;99988.44;;;13.00;81.29
84108;BME280;74203;50.730;1.626;2023-11-19T02:01:38;99985.22;;;12.91;81.52
84108;BME280;74203;50.730;1.626;2023-11-19T02:03:46;99985.44;;;12.78;80.12
84108;BME280;74203;50.730;1.626;2023-11-19T02:05:54;99987.06;;;12.67;80.00
84108;BME280;74203;50.730;1.626;2023-11-19T02:08:01;99991.06;;;12.65;80.59
84108;BME280;74203;50.730;1.626;2023-11-19T02:10:10;99996.47;;;12.65;81.39
84108;BME280;74203;50.730;1.626;2023-11-19T02:12:18;99991.88;;;12.65;81.41
84108;BME280;74203;50.730;1.626;2023-11-19T02:14:28;99996.84;;;12.68;80.93
84108;BME280;74203;50.730;1.626;2023-11-19T02:16:35;99985.63;;;12.65;80.98
84108;BME280;74203;50.730;1.626;2023-11-19T02:18:42;99991.53;;;12.62;80.47
84108;BME280;74203;50.730;1.626;2023-11-19T02:20:50;99984.66;;;12.47;80.71
84108;BME280;74203;50.730;1.626;2023-11-19T02:22:57;99991.72;;;12.48;81.13
84108;BME280;74203;50.730;1.626;2023-11-19T02:25:08;99992.78;;;12.47;80.17
84108;BME280;74203;50.730;1.626;2023-11-19T02:27:27;99986.28;;;12.48;80.25
84108;BME280;74203;50.730;1.626;2023-11-19T02:29:37;99980.41;;;12.51;80.34
84108;BME280;74203;50.730;1.626;2023-11-19T02:31:45;99963.91;;;12.41;79.58
84108;BME280;74203;50.730;1.626;2023-11-19T02:33:52;99996.31;;;12.48;78.69
84108;BME280;74203;50.730;1.626;2023-11-19T02:35:59;100004.19;;;12.49;78.77
84108;BME280;74203;50.730;1.626;2023-11-19T02:38:07;100003.37;;;12.49;79.00
84108;BME280;74203;50.730;1.626;2023-11-19T02:40:14;100002.53;;;12.48;78.95
84108;BME280;74203;50.730;1.626;2023-11-19T02:42:22;100007.03;;;12.54;78.80
84108;BME280;74203;50.730;1.626;2023-11-19T02:44:30;99999.13;;;12.53;79.35
84108;BME280;74203;50.730;1.626;2023-11-19T02:46:37;99997.12;;;12.48;79.93
84108;BME280;74203;50.730;1.626;2023-11-19T02:48:44;100001.34;;;12.44;80.02
84108;BME280;74203;50.730;1.626;2023-11-19T02:50:52;100006.31;;;12.47;80.06
84108;BME280;74203;50.730;1.626;2023-11-19T02:52:59;100008.41;;;12.45;80.44
84108;BME280;74203;50.730;1.626;2023-11-19T02:55:08;99995.00;;;12.50;79.79
84108;BME280;74203;50.730;1.626;2023-11-19T02:57:15;99992.44;;;12.55;79.54
84108;BME280;74203;50.730;1.626;2023-11-19T02:59:22;99996.78;;;12.56;79.01
84108;BME280;74203;50.730;1.626;2023-11-19T03:01:30;99997.84;;;12.55;79.43
84108;BME280;74203;50.730;1.626;2023-11-19T03:03:37;99999.56;;;12.68;79.06
84108;BME280;74203;50.730;1.626;2023-11-19T03:05:44;99993.44;;;12.73;79.36
84108;BME280;74203;50.730;1.626;2023-11-19T03:07:52;100004.50;;;12.71;79.87
84108;BME280;74203;50.730;1.626;2023-11-19T03:09:59;99990.59;;;12.68;79.87
84108;BME280;74203;50.730;1.626;2023-11-19T03:12:08;99982.25;;;12.69;79.47
84108;BME280;74203;50.730;1.626;2023-11-19T03:14:16;99996.84;;;12.68;78.37
84108;BME280;74203;50.730;1.626;2023-11-19T03:16:23;99983.25;;;12.56;78.30
84108;BME280;74203;50.730;1.626;2023-11-19T03:18:30;99986.75;;;12.45;78.32
84108;BME280;74203;50.730;1.626;2023-11-19T03:20:38;99975.91;;;12.45;78.87
84108;BME280;74203;50.730;1.626;2023-11-19T03:22:45;99988.84;;;12.43;78.43
84108;BME280;74203;50.730;1.626;2023-11-19T03:24:55;99980.88;;;12.48;78.29
84108;BME280;74203;50.730;1.626;2023-11-19T03:27:03;99989.34;;;12.40;78.30
84108;BME280;74203;50.730;1.626;2023-11-19T03:29:10;99981.31;;;12.45;78.44
84108;BME280;74203;50.730;1.626;2023-11-19T03:31:17;99977.28;;;12.36;79.75
84108;BME280;74203;50.730;1.626;2023-11-19T03:33:25;99983.78;;;12.35;79.57
84108;BME280;74203;50.730;1.626;2023-11-19T03:35:32;99975.66;;;12.35;79.55
84108;BME280;74203;50.730;1.626;2023-11-19T03:37:40;99983.91;;;12.40;78.78
84108;BME280;74203;50.730;1.626;2023-11-19T03:39:47;99992.16;;;12.45;78.33
84108;BME280;74203;50.730;1.626;2023-11-19T03:41:55;99988.84;;;12.43;77.71
84108;BME280;74203;50.730;1.626;2023-11-19T03:44:03;99979.25;;;12.47;76.87
84108;BME280;74203;50.730;1.626;2023-11-19T03:46:20;99973.09;;;12.40;77.58
84108;BME280;74203;50.730;1.626;2023-11-19T03:48:28;99962.13;;;12.35;78.05
84108;BME280;74203;50.730;1.626;2023-11-19T03:50:35;99965.41;;;12.37;78.18
84108;BME280;74203;50.730;1.626;2023-11-19T03:52:43;99969.75;;;12.38;77.94
84108;BME280;74203;50.730;1.626;2023-11-19T03:54:50;99969.25;;;12.29;78.04
84108;BME280;74203;50.730;1.626;2023-11-19T03:56:58;99975.97;;;12.27;78.34
84108;BME280;74203;50.730;1.626;2023-11-19T03:59:05;99969.03;;;12.31;78.58
84108;BME280;74203;50.730;1.626;2023-11-19T04:01:15;99975.25;;;12.32;78.47
84108;BME280;74203;50.730;1.626;2023-11-19T04:03:22;99975.41;;;12.37;78.50
84108;BME280;74203;50.730;1.626;2023-11-19T04:05:29;99975.66;;;12.35;78.71
84108;BME280;74203;50.730;1.626;2023-11-19T04:07:37;99971.16;;;12.29;78.77
84108;BME280;74203;50.730;1.626;2023-11-19T04:09:44;99971.16;;;12.29;78.90
84108;BME280;74203;50.730;1.626;2023-11-19T04:11:52;99960.75;;;12.26;78.74
84108;BME280;74203;50.730;1.626;2023-11-19T04:13:59;99960.66;;;12.21;78.24
84108;BME280;74203;50.730;1.626;2023-11-19T04:16:08;99965.97;;;12.27;77.78
84108;BME280;74203;50.730;1.626;2023-11-19T04:18:15;99963.63;;;12.31;77.32
84108;BME280;74203;50.730;1.626;2023-11-19T04:20:22;99956.13;;;12.33;77.44
84108;BME280;74203;50.730;1.626;2023-11-19T04:22:30;99964.81;;;12.35;77.71
84108;BME280;74203;50.730;1.626;2023-11-19T04:24:37;99972.13;;;12.35;77.95
84108;BME280;74203;50.730;1.626;2023-11-19T04:26:46;99977.87;;;12.38;78.03
84108;BME280;74203;50.730;1.626;2023-11-19T04:28:53;99970.97;;;12.42;78.55
84108;BME280;74203;50.730;1.626;2023-11-19T04:31:01;99953.22;;;12.46;78.59
84108;BME280;74203;50.730;1.626;2023-11-19T04:33:08;99942.69;;;12.38;78.44
84108;BME280;74203;50.730;1.626;2023-11-19T04:35:16;99942.69;;;12.38;78.93
84108;BME280;74203;50.730;1.626;2023-11-19T04:37:23;99942.34;;;12.35;79.44
84108;BME280;74203;50.730;1.626;2023-11-19T04:39:31;99937.41;;;12.43;79.43
84108;BME280;74203;50.730;1.626;2023-11-19T04:41:41;99962.25;;;12.40;79.06
84108;BME280;74203;50.730;1.626;2023-11-19T04:43:52;99960.28;;;12.47;79.07
84108;BME280;74203;50.730;1.626;2023-11-19T04:46:00;99983.63;;;12.60;78.91
84108;BME280;74203;50.730;1.626;2023-11-19T04:48:10;99979.28;;;12.71;79.17
84108;BME280;74203;50.730;1.626;2023-11-19T04:50:18;99984.13;;;12.69;79.03
84108;BME280;74203;50.730;1.626;2023-11-19T04:52:25;99973.69;;;12.84;78.58
84108;BME280;74203;50.730;1.626;2023-11-19T04:54:32;99975.59;;;12.95;78.52
84108;BME280;74203;50.730;1.626;2023-11-19T04:56:40;99971.69;;;12.91;78.21
84108;BME280;74203;50.730;1.626;2023-11-19T04:58:47;99966.41;;;12.96;78.10
84108;BME280;74203;50.730;1.626;2023-11-19T05:00:55;99952.28;;;12.94;78.58
84108;BME280;74203;50.730;1.626;2023-11-19T05:03:02;99946.38;;;12.97;78.37
84108;BME280;74203;50.730;1.626;2023-11-19T05:05:11;99964.28;;;12.98;77.46
84108;BME280;74203;50.730;1.626;2023-11-19T05:07:18;99964.75;;;12.95;77.49
84108;BME280;74203;50.730;1.626;2023-11-19T05:09:25;99972.75;;;12.90;77.58
84108;BME280;74203;50.730;1.626;2023-11-19T05:11:33;99971.81;;;12.96;77.66
84108;BME280;74203;50.730;1.626;2023-11-19T05:13:40;99970.03;;;12.90;77.60
84108;BME280;74203;50.730;1.626;2023-11-19T05:15:48;99967.09;;;12.92;77.31
84108;BME280;74203;50.730;1.626;2023-11-19T05:17:55;99957.91;;;12.81;77.14
84108;BME280;74203;50.730;1.626;2023-11-19T05:20:03;99969.06;;;12.73;77.93
84108;BME280;74203;50.730;1.626;2023-11-19T05:22:11;99968.22;;;12.61;77.95
84108;BME280;74203;50.730;1.626;2023-11-19T05:24:18;99964.31;;;12.56;77.03
84108;BME280;74203;50.730;1.626;2023-11-19T05:26:26;99967.84;;;12.57;78.41
84108;BME280;74203;50.730;1.626;2023-11-19T05:28:34;99959.75;;;12.69;77.90
84108;BME280;74203;50.730;1.626;2023-11-19T05:30:41;99968.47;;;12.71;77.77
84108;BME280;74203;50.730;1.626;2023-11-19T05:32:48;99961.41;;;12.70;77.43
84108;BME280;74203;50.730;1.626;2023-11-19T05:34:55;99970.84;;;12.79;77.09
84108;BME280;74203;50.730;1.626;2023-11-19T05:37:03;99973.78;;;12.77;77.50
84108;BME280;74203;50.730;1.626;2023-11-19T05:39:11;99971.56;;;12.86;77.26
84108;BME280;74203;50.730;1.626;2023-11-19T05:41:18;99959.69;;;12.87;77.53
84108;BME280;74203;50.730;1.626;2023-11-19T05:43:26;99955.78;;;12.83;77.45
84108;BME280;74203;50.730;1.626;2023-11-19T05:45:34;99959.34;;;12.95;77.54
84108;BME280;74203;50.730;1.626;2023-11-19T05:47:43;99944.25;;;12.99;77.42
84108;BME280;74203;50.730;1.626;2023-11-19T05:49:50;99944.25;;;12.99;77.87
84108;BME280;74203;50.730;1.626;2023-11-19T05:51:58;99948.72;;;12.82;77.85
84108;BME280;74203;50.730;1.626;2023-11-19T05:54:06;99951.75;;;12.74;78.18
84108;BME280;74203;50.730;1.626;2023-11-19T05:56:13;99952.12;;;12.77;77.82
84108;BME280;74203;50.730;1.626;2023-11-19T05:58:21;99964.00;;;12.76;77.58
84108;BME280;74203;50.730;1.626;2023-11-19T06:00:29;99954.13;;;12.82;77.21
84108;BME280;74203;50.730;1.626;2023-11-19T06:02:37;99962.25;;;12.82;76.33
84108;BME280;74203;50.730;1.626;2023-11-19T06:04:44;99976.25;;;12.79;76.96
84108;BME280;74203;50.730;1.626;2023-11-19T06:06:51;99979.44;;;12.76;76.29
84108;BME280;74203;50.730;1.626;2023-11-19T06:08:59;99977.50;;;12.65;76.03
84108;BME280;74203;50.730;1.626;2023-11-19T06:11:07;99985.87;;;12.63;76.32
84108;BME280;74203;50.730;1.626;2023-11-19T06:13:16;99973.41;;;12.62;76.68
84108;BME280;74203;50.730;1.626;2023-11-19T06:15:24;99968.94;;;12.68;77.55
84108;BME280;74203;50.730;1.626;2023-11-19T06:17:31;99975.28;;;12.73;77.23
84108;BME280;74203;50.730;1.626;2023-11-19T06:19:39;99970.37;;;12.82;77.96
84108;BME280;74203;50.730;1.626;2023-11-19T06:21:46;99977.16;;;12.73;78.94
84108;BME280;74203;50.730;1.626;2023-11-19T06:23:53;99979.28;;;12.71;79.47
84108;BME280;74203;50.730;1.626;2023-11-19T06:26:01;99986.25;;;12.67;79.13
84108;BME280;74203;50.730;1.626;2023-11-19T06:28:08;99976.00;;;12.69;79.26
84108;BME280;74203;50.730;1.626;2023-11-19T06:30:16;99975.09;;;12.75;78.76
84108;BME280;74203;50.730;1.626;2023-11-19T06:32:24;99975.88;;;12.64;78.91
84108;BME280;74203;50.730;1.626;2023-11-19T06:34:31;99974.56;;;12.54;79.61
84108;BME280;74203;50.730;1.626;2023-11-19T06:36:38;99966.53;;;12.60;79.55
84108;BME280;74203;50.730;1.626;2023-11-19T06:38:46;99974.34;;;12.68;77.82
84108;BME280;74203;50.730;1.626;2023-11-19T06:40:53;99980.03;;;12.78;76.64
84108;BME280;74203;50.730;1.626;2023-11-19T06:43:01;99978.13;;;12.67;76.66
84108;BME280;74203;50.730;1.626;2023-11-19T06:45:09;99963.53;;;12.68;75.97
84108;BME280;74203;50.730;1.626;2023-11-19T06:47:16;99963.72;;;12.54;76.01
84108;BME280;74203;50.730;1.626;2023-11-19T06:49:24;99976.63;;;12.52;76.25
84108;BME280;74203;50.730;1.626;2023-11-19T06:51:31;99979.03;;;12.61;76.40
84108;BME280;74203;50.730;1.626;2023-11-19T06:53:39;99979.78;;;12.68;76.17
84108;BME280;74203;50.730;1.626;2023-11-19T06:55:46;99989.06;;;12.72;77.53
84108;BME280;74203;50.730;1.626;2023-11-19T06:57:53;99993.03;;;12.57;78.33
84108;BME280;74203;50.730;1.626;2023-11-19T07:00:01;99997.56;;;12.45;78.54
84108;BME280;74203;50.730;1.626;2023-11-19T07:02:09;100009.59;;;12.49;78.40
84108;BME280;74203;50.730;1.626;2023-11-19T07:04:16;99996.84;;;12.38;77.71
84108;BME280;74203;50.730;1.626;2023-11-19T07:06:24;99997.12;;;12.48;76.76
84108;BME280;74203;50.730;1.626;2023-11-19T07:08:31;99995.16;;;12.55;76.79
84108;BME280;74203;50.730;1.626;2023-11-19T07:10:38;99986.78;;;12.57;76.88
84108;BME280;74203;50.730;1.626;2023-11-19T07:12:46;99985.63;;;12.65;77.78
84108;BME280;74203;50.730;1.626;2023-11-19T07:14:53;99992.59;;;12.72;77.57
84108;BME280;74203;50.730;1.626;2023-11-19T07:17:00;99987.56;;;12.76;77.75
84108;BME280;74203;50.730;1.626;2023-11-19T07:19:08;99984.81;;;12.64;76.90
84108;BME280;74203;50.730;1.626;2023-11-19T07:21:15;99984.28;;;12.74;76.02
84108;BME280;74203;50.730;1.626;2023-11-19T07:23:23;99990.12;;;12.71;75.47
84108;BME280;74203;50.730;1.626;2023-11-19T07:25:30;99981.56;;;12.74;75.97
84108;BME280;74203;50.730;1.626;2023-11-19T07:27:37;99986.50;;;12.77;75.71
84108;BME280;74203;50.730;1.626;2023-11-19T07:29:45;99978.84;;;12.85;75.35
84108;BME280;74203;50.730;1.626;2023-11-19T07:31:53;99989.72;;;12.97;75.04
84108;BME280;74203;50.730;1.626;2023-11-19T07:34:04;99982.38;;;12.86;75.03
84108;BME280;74203;50.730;1.626;2023-11-19T07:36:12;99998.91;;;12.96;75.16
84108;BME280;74203;50.730;1.626;2023-11-19T07:38:19;99982.28;;;12.93;75.39
84108;BME280;74203;50.730;1.626;2023-11-19T07:40:27;99980.19;;;12.95;75.60
84108;BME280;74203;50.730;1.626;2023-11-19T07:42:34;99988.19;;;12.90;74.91
84108;BME280;74203;50.730;1.626;2023-11-19T07:44:42;99989.59;;;12.92;75.23
84108;BME280;74203;50.730;1.626;2023-11-19T07:46:50;99985.22;;;12.91;75.34
84108;BME280;74203;50.730;1.626;2023-11-19T07:48:57;99981.84;;;12.96;75.32
84108;BME280;74203;50.730;1.626;2023-11-19T07:51:06;99985.50;;;13.01;76.07
84108;BME280;74203;50.730;1.626;2023-11-19T07:53:15;99981.88;;;13.07;76.17
84108;BME280;74203;50.730;1.626;2023-11-19T07:55:22;99982.78;;;13.13;76.23
84108;BME280;74203;50.730;1.626;2023-11-19T07:57:29;99958.62;;;13.11;76.12
84108;BME280;74203;50.730;1.626;2023-11-19T07:59:37;99978.19;;;13.02;76.11
84108;BME280;74203;50.730;1.626;2023-11-19T08:01:44;99981.25;;;13.05;75.42
84108;BME280;74203;50.730;1.626;2023-11-19T08:03:51;99989.66;;;13.16;75.42
84108;BME280;74203;50.730;1.626;2023-11-19T08:05:59;99992.91;;;13.06;74.62
84108;BME280;74203;50.730;1.626;2023-11-19T08:08:07;99978.91;;;13.09;74.74
84108;BME280;74203;50.730;1.626;2023-11-19T08:10:14;99983.59;;;13.13;75.02
84108;BME280;74203;50.730;1.626;2023-11-19T08:12:22;99977.97;;;13.15;75.22
84108;BME280;74203;50.730;1.626;2023-11-19T08:14:29;99977.03;;;13.09;75.80
84108;BME280;74203;50.730;1.626;2023-11-19T08:16:36;99972.44;;;13.10;76.22
84108;BME280;74203;50.730;1.626;2023-11-19T08:18:46;99977.75;;;13.17;76.30
84108;BME280;74203;50.730;1.626;2023-11-19T08:20:53;99996.88;;;13.22;76.05
84108;BME280;74203;50.730;1.626;2023-11-19T08:23:02;99995.75;;;13.11;75.77
84108;BME280;74203;50.730;1.626;2023-11-19T08:25:11;100011.47;;;13.21;75.40
84108;BME280;74203;50.730;1.626;2023-11-19T08:27:18;99995.50;;;13.12;75.81
84108;BME280;74203;50.730;1.626;2023-11-19T08:29:26;100000.25;;;13.17;76.02
84108;BME280;74203;50.730;1.626;2023-11-19T08:31:33;100008.97;;;13.19;76.23
84108;BME280;74203;50.730;1.626;2023-11-19T08:33:40;99999.34;;;13.23;76.07
84108;BME280;74203;50.730;1.626;2023-11-19T08:35:48;100015.50;;;13.30;76.01
84108;BME280;74203;50.730;1.626;2023-11-19T08:37:55;100006.78;;;13.28;76.08
84108;BME280;74203;50.730;1.626;2023-11-19T08:40:03;100013.37;;;13.32;75.77
84108;BME280;74203;50.730;1.626;2023-11-19T08:42:11;100011.25;;;13.34;75.55
84108;BME280;74203;50.730;1.626;2023-11-19T08:44:19;100001.38;;;13.28;75.77
84108;BME280;74203;50.730;1.626;2023-11-19T08:46:26;100010.91;;;13.30;75.74
84108;BME280;74203;50.730;1.626;2023-11-19T08:48:33;100018.56;;;13.33;75.27
84108;BME280;74203;50.730;1.626;2023-11-19T08:50:41;100003.47;;;13.26;76.20
84108;BME280;74203;50.730;1.626;2023-11-19T08:52:48;100009.56;;;13.09;76.51
84108;BME280;74203;50.730;1.626;2023-11-19T08:54:56;99989.88;;;13.02;75.98
84108;BME280;74203;50.730;1.626;2023-11-19T08:57:03;100027.66;;;12.97;74.95
84108;BME280;74203;50.730;1.626;2023-11-19T08:59:11;100009.75;;;12.96;74.88
84108;BME280;74203;50.730;1.626;2023-11-19T09:01:18;100011.88;;;12.94;74.82
84108;BME280;74203;50.730;1.626;2023-11-19T09:03:26;100018.94;;;12.95;76.25
84108;BME280;74203;50.730;1.626;2023-11-19T09:05:33;100016.50;;;13.17;76.46
84108;BME280;74203;50.730;1.626;2023-11-19T09:07:41;100012.44;;;13.38;76.76
84108;BME280;74203;50.730;1.626;2023-11-19T09:09:49;100010.78;;;13.37;75.73
84108;BME280;74203;50.730;1.626;2023-11-19T09:11:56;100008.78;;;13.56;75.48
84108;BME280;74203;50.730;1.626;2023-11-19T09:14:03;100015.16;;;13.50;74.62
84108;BME280;74203;50.730;1.626;2023-11-19T09:16:11;100013.72;;;13.47;75.26
84108;BME280;74203;50.730;1.626;2023-11-19T09:18:18;100018.12;;;13.48;75.05
84108;BME280;74203;50.730;1.626;2023-11-19T09:20:25;99999.97;;;13.49;74.66
84108;BME280;74203;50.730;1.626;2023-11-19T09:22:33;100010.78;;;13.60;73.95
84108;BME280;74203;50.730;1.626;2023-11-19T09:24:40;100005.59;;;13.71;74.08
84108;BME280;74203;50.730;1.626;2023-11-19T09:26:48;99997.22;;;13.60;73.77
84108;BME280;74203;50.730;1.626;2023-11-19T09:28:55;99993.69;;;13.60;73.54
84108;BME280;74203;50.730;1.626;2023-11-19T09:31:02;99985.22;;;13.56;73.76
84108;BME280;74203;50.730;1.626;2023-11-19T09:33:10;99986.72;;;13.52;73.47
84108;BME280;74203;50.730;1.626;2023-11-19T09:35:17;99979.78;;;13.45;73.59
84108;BME280;74203;50.730;1.626;2023-11-19T09:37:25;99988.16;;;13.43;73.52
84108;BME280;74203;50.730;1.626;2023-11-19T09:39:32;99978.72;;;13.34;73.84
84108;BME280;74203;50.730;1.626;2023-11-19T09:41:39;99979.31;;;13.36;73.75
84108;BME280;74203;50.730;1.626;2023-11-19T09:43:48;99989.66;;;13.27;74.25
84108;BME280;74203;50.730;1.626;2023-11-19T09:45:55;99981.31;;;13.29;74.52
84108;BME280;74203;50.730;1.626;2023-11-19T09:48:06;99975.91;;;13.29;73.89
84108;BME280;74203;50.730;1.626;2023-11-19T09:50:18;99968.84;;;13.28;74.80
84108;BME280;74203;50.730;1.626;2023-11-19T09:52:26;99975.47;;;13.13;75.97
84108;BME280;74203;50.730;1.626;2023-11-19T09:54:34;99967.00;;;12.98;77.97
84108;BME280;74203;50.730;1.626;2023-11-19T09:56:42;99992.19;;;12.87;79.46
84108;BME280;74203;50.730;1.626;2023-11-19T09:58:51;100003.97;;;12.93;79.28
84108;BME280;74203;50.730;1.626;2023-11-19T10:00:59;100017.75;;;12.91;79.14
84108;BME280;74203;50.730;1.626;2023-11-19T10:03:10;100015.97;;;12.85;77.57
84108;BME280;74203;50.730;1.626;2023-11-19T10:05:19;100022.00;;;12.87;77.74
84108;BME280;74203;50.730;1.626;2023-11-19T10:07:27;100019.53;;;12.97;76.64
84108;BME280;74203;50.730;1.626;2023-11-19T10:09:35;100019.78;;;12.96;77.00
84108;BME280;74203;50.730;1.626;2023-11-19T10:11:42;100024.22;;;12.90;77.30
84108;BME280;74203;50.730;1.626;2023-11-19T10:13:50;100028.13;;;12.94;77.59
84108;BME280;74203;50.730;1.626;2023-11-19T10:15:59;100019.06;;;13.00;76.81
84108;BME280;74203;50.730;1.626;2023-11-19T10:18:10;100014.59;;;13.06;76.63
84108;BME280;74203;50.730;1.626;2023-11-19T10:20:18;100009.28;;;12.99;76.73
84108;BME280;74203;50.730;1.626;2023-11-19T10:22:26;100015.53;;;13.00;77.12
84108;BME280;74203;50.730;1.626;2023-11-19T10:24:37;100001.47;;;13.21;76.72
84108;BME280;74203;50.730;1.626;2023-11-19T10:26:45;99999.47;;;13.28;75.40
84108;BME280;74203;50.730;1.626;2023-11-19T10:28:52;99992.50;;;13.21;75.16
84108;BME280;74203;50.730;1.626;2023-11-19T10:31:00;100004.66;;;13.30;74.79
84108;BME280;74203;50.730;1.626;2023-11-19T10:33:10;99995.59;;;13.36;74.66
84108;BME280;74203;50.730;1.626;2023-11-19T10:35:18;99994.03;;;13.40;73.47
84108;BME280;74203;50.730;1.626;2023-11-19T10:37:33;99981.78;;;13.49;74.61
84108;BME280;74203;50.730;1.626;2023-11-19T10:39:58;99978.00;;;13.50;73.59
84108;BME280;74203;50.730;1.626;2023-11-19T10:42:17;99992.63;;;13.26;76.36
84108;BME280;74203;50.730;1.626;2023-11-19T10:44:36;99994.22;;;13.03;77.25
84108;BME280;74203;50.730;1.626;2023-11-19T10:46:44;100004.06;;;12.74;80.53
84108;BME280;74203;50.730;1.626;2023-11-19T10:48:52;99996.75;;;12.45;80.09
84108;BME280;74203;50.730;1.626;2023-11-19T10:51:00;99985.75;;;12.10;78.86
84108;BME280;74203;50.730;1.626;2023-11-19T10:53:09;99987.53;;;11.86;79.75
84108;BME280;74203;50.730;1.626;2023-11-19T10:55:17;99988.06;;;11.69;80.74
84108;BME280;74203;50.730;1.626;2023-11-19T10:57:32;99997.00;;;11.70;81.73
84108;BME280;74203;50.730;1.626;2023-11-19T10:59:43;99979.59;;;11.84;82.10
84108;BME280;74203;50.730;1.626;2023-11-19T11:01:55;99980.59;;;12.08;82.70
84108;BME280;74203;50.730;1.626;2023-11-19T11:04:05;99978.34;;;12.35;82.28
84108;BME280;74203;50.730;1.626;2023-11-19T11:06:15;99975.72;;;12.58;80.57
84108;BME280;74203;50.730;1.626;2023-11-19T11:08:23;99975.66;;;12.77;78.70
84108;BME280;74203;50.730;1.626;2023-11-19T11:10:30;99983.72;;;12.95;77.71
84108;BME280;74203;50.730;1.626;2023-11-19T11:12:40;99976.44;;;13.07;75.98
84108;BME280;74203;50.730;1.626;2023-11-19T11:14:48;99975.72;;;13.12;75.80